createdAt,value
2019-05-06T00:03:14.450Z,6.53
2019-05-06T00:08:17.870Z,7.87
2019-05-06T00:13:21.266Z,6.90
2019-05-06T00:18:24.683Z,7.87
2019-05-06T00:23:32.452Z,6.20
2019-05-06T00:28:37.501Z,6.20
2019-05-06T00:33:40.921Z,9.50
2019-05-06T00:38:46.045Z,6.87
2019-05-06T00:43:49.453Z,11.47
2019-05-06T00:48:54.260Z,7.17
2019-05-06T00:53:59.512Z,7.70
2019-05-06T00:59:03.986Z,9.77
2019-05-06T01:04:07.485Z,6.70
2019-05-06T01:09:14.080Z,8.37
2019-05-06T01:14:35.349Z,9.00
2019-05-06T01:19:38.880Z,6.37
2019-05-06T01:24:43.933Z,9.33
2019-05-06T01:29:47.492Z,6.80
2019-05-06T01:34:50.911Z,9.03
2019-05-06T01:40:05.376Z,6.30
2019-05-06T01:45:10.059Z,8.33
2019-05-06T01:50:14.114Z,8.57
2019-05-06T01:55:17.690Z,6.63
2019-05-06T02:00:23.727Z,10.50
2019-05-06T02:05:27.331Z,9.50
2019-05-06T02:10:30.774Z,7.27
2019-05-06T02:15:34.635Z,8.47
2019-05-06T02:20:39.751Z,9.33
2019-05-06T02:25:44.814Z,8.73
2019-05-06T02:30:54.829Z,8.23
2019-05-06T02:35:59.499Z,8.97
2019-05-06T02:41:03.675Z,8.13
2019-05-06T02:46:07.267Z,11.17
2019-05-06T02:51:13.333Z,8.53
2019-05-06T02:56:17.028Z,12.23
2019-05-06T03:01:23.353Z,9.30
2019-05-06T03:06:26.320Z,9.53
2019-05-06T03:11:29.748Z,6.23
2019-05-06T03:16:33.596Z,6.73
2019-05-06T03:21:45.012Z,9.67
2019-05-06T03:26:53.398Z,10.43
2019-05-06T03:31:56.959Z,8.57
2019-05-06T03:37:00.535Z,8.83
2019-05-06T03:42:04.789Z,8.90
2019-05-06T03:47:10.020Z,12.80
2019-05-06T03:52:13.723Z,11.10
2019-05-06T03:57:18.673Z,10.97
2019-05-06T04:02:24.026Z,12.50
2019-05-06T04:07:28.056Z,9.10
2019-05-06T04:12:34.621Z,9.63
2019-05-06T04:17:48.829Z,10.83
2019-05-06T04:23:06.433Z,12.20
2019-05-06T04:28:17.891Z,11.40
2019-05-06T04:33:23.673Z,14.27
2019-05-06T04:38:27.078Z,9.77
2019-05-06T04:43:33.659Z,10.90
2019-05-06T04:48:36.022Z,10.47
2019-05-06T04:53:39.434Z,9.00
2019-05-06T04:58:43.924Z,8.83
2019-05-06T05:03:47.554Z,9.50
2019-05-06T05:08:53.202Z,11.70
2019-05-06T05:14:02.834Z,17.13
2019-05-06T05:19:12.106Z,17.63
2019-05-06T05:24:15.463Z,15.13
2019-05-06T05:29:18.927Z,14.03
2019-05-06T05:34:26.648Z,14.07
2019-05-06T05:39:27.670Z,12.43
2019-05-06T05:44:32.744Z,15.10
2019-05-06T05:49:37.829Z,11.20
2019-05-06T05:54:42.354Z,10.37
2019-05-06T05:59:45.989Z,10.37
2019-05-06T06:04:54.803Z,12.17
2019-05-06T06:10:02.705Z,14.23
2019-05-06T06:15:08.969Z,13.90
2019-05-06T06:20:32.754Z,16.37
2019-05-06T06:25:36.787Z,12.03
2019-05-06T06:30:47.743Z,12.33
2019-05-06T06:35:55.401Z,14.47
2019-05-06T06:40:58.874Z,9.93
2019-05-06T06:46:02.555Z,13.50
2019-05-06T06:51:06.077Z,17.60
2019-05-06T06:56:21.880Z,15.90
2019-05-06T07:01:29.399Z,11.03
2019-05-06T07:06:34.523Z,12.43
2019-05-06T07:11:38.093Z,8.83
2019-05-06T07:16:43.049Z,8.90
2019-05-06T07:21:52.258Z,10.03
2019-05-06T07:26:59.886Z,11.27
2019-05-06T07:32:03.314Z,11.00
2019-05-06T07:37:06.728Z,9.07
2019-05-06T07:42:17.822Z,10.30
2019-05-06T07:47:23.952Z,10.43
2019-05-06T07:52:27.572Z,9.90
2019-05-06T07:57:32.981Z,12.67
2019-05-06T08:02:36.193Z,12.67
2019-05-06T08:07:39.613Z,13.53
2019-05-06T08:12:43.049Z,11.00
2019-05-06T08:17:46.475Z,12.10
2019-05-06T08:23:03.556Z,15.40
2019-05-06T08:28:07.011Z,14.93
2019-05-06T08:33:12.718Z,7.77
2019-05-06T08:38:15.656Z,8.87
2019-05-06T08:43:19.089Z,10.73
2019-05-06T08:48:22.515Z,11.90
2019-05-06T08:53:27.579Z,10.27
2019-05-06T08:58:47.442Z,9.40
2019-05-06T09:04:06.421Z,11.70
2019-05-06T09:08:56.975Z,8.80
2019-05-06T09:14:03.199Z,13.13
2019-05-06T09:19:05.927Z,8.03
2019-05-06T09:24:09.409Z,6.93
2019-05-06T09:29:17.311Z,10.20
2019-05-06T09:34:34.392Z,8.03
2019-05-06T09:39:37.944Z,7.57
2019-05-06T09:44:42.880Z,5.63
2019-05-06T09:49:47.973Z,7.03
2019-05-06T09:54:58.727Z,8.27
2019-05-06T10:00:04.573Z,8.57
2019-05-06T10:05:07.443Z,8.17
2019-05-06T10:10:10.991Z,4.37
2019-05-06T10:15:16.163Z,5.17
2019-05-06T10:20:22.201Z,7.93
2019-05-06T10:25:24.952Z,7.17
2019-05-06T10:30:28.385Z,5.73
2019-05-06T10:35:32.380Z,7.93
2019-05-06T10:40:56.238Z,3.90
2019-05-06T10:45:44.112Z,4.67
2019-05-06T10:50:49.478Z,7.83
2019-05-06T10:55:54.800Z,9.10
2019-05-06T11:00:59.872Z,5.67
2019-05-06T11:06:03.299Z,6.53
2019-05-06T11:11:15.346Z,4.97
2019-05-06T11:16:12.975Z,5.87
2019-05-06T11:21:16.522Z,6.63
2019-05-06T11:26:19.944Z,5.83
2019-05-06T11:36:57.653Z,4.30
2019-05-06T11:42:22.821Z,4.53
2019-05-06T11:47:06.251Z,5.37
2019-05-06T11:52:09.683Z,8.77
2019-05-06T11:57:13.108Z,4.10
2019-05-06T12:02:20.904Z,4.53
2019-05-06T12:07:24.877Z,3.67
2019-05-06T12:12:28.482Z,4.33
2019-05-06T12:17:31.899Z,4.03
2019-05-06T12:22:38.242Z,4.30
2019-05-06T12:27:44.175Z,3.73
2019-05-06T12:38:26.715Z,4.30
2019-05-06T12:43:24.386Z,4.60
2019-05-06T12:48:29.502Z,5.37
2019-05-06T12:53:32.938Z,7.00
2019-05-06T12:58:36.361Z,7.30
2019-05-06T13:03:39.880Z,4.60
2019-05-06T13:08:56.642Z,7.17
2019-05-06T13:13:57.404Z,5.17
2019-05-06T13:18:54.962Z,11.70
2019-05-06T13:24:04.622Z,6.43
2019-05-06T13:29:10.027Z,6.50
2019-05-06T13:34:17.665Z,6.83
2019-05-06T13:39:23.773Z,7.80
2019-05-06T13:44:26.330Z,7.77
2019-05-06T13:49:31.468Z,7.80
2019-05-06T13:54:34.991Z,8.60
2019-05-06T13:59:38.447Z,9.13
2019-05-06T14:04:44.226Z,9.47
2019-05-06T14:09:47.116Z,9.83
2019-05-06T14:14:52.738Z,14.10
2019-05-06T14:19:55.703Z,11.30
2019-05-06T14:25:00.788Z,12.80
2019-05-06T14:30:16.710Z,15.47
2019-05-06T14:35:20.232Z,12.27
2019-05-06T14:40:25.340Z,17.80
2019-05-06T14:45:28.797Z,15.80
2019-05-06T14:50:44.424Z,19.13
2019-05-06T14:55:38.920Z,20.73
2019-05-06T15:00:42.687Z,19.57
2019-05-06T15:05:46.112Z,15.50
2019-05-06T15:10:49.699Z,15.67
2019-05-06T15:15:53.281Z,16.13
2019-05-06T15:20:56.727Z,15.97
2019-05-06T15:26:00.183Z,19.20
2019-05-06T15:31:05.248Z,17.90
2019-05-06T15:36:12.709Z,18.00
2019-05-06T15:41:15.500Z,16.20
2019-05-06T15:46:18.938Z,18.87
2019-05-06T15:51:24.007Z,18.80
2019-05-06T15:56:27.434Z,20.03
2019-05-06T16:01:33.211Z,20.30
2019-05-06T16:06:36.048Z,20.67
2019-05-06T16:11:39.474Z,22.33
2019-05-06T16:16:43.102Z,22.50
2019-05-06T16:21:46.530Z,17.57
2019-05-06T16:26:52.216Z,16.00
2019-05-06T16:31:55.198Z,14.43
2019-05-06T16:36:58.652Z,15.80
2019-05-06T16:42:03.616Z,12.30
2019-05-06T16:47:07.297Z,10.40
2019-05-06T16:52:12.903Z,10.83
2019-05-06T16:57:20.237Z,12.00
2019-05-06T17:02:26.659Z,12.23
2019-05-06T17:07:30.158Z,14.73
2019-05-06T17:34:36.336Z,12.67
2019-05-06T17:44:29.656Z,13.90
2019-05-06T17:49:37.370Z,13.03
2019-05-06T17:54:42.899Z,14.37
2019-05-06T17:59:46.274Z,11.43
2019-05-06T18:04:49.863Z,14.03
2019-05-06T18:09:53.332Z,14.90
2019-05-06T18:14:58.292Z,15.17
2019-05-06T18:20:02.956Z,13.27
2019-05-06T18:25:06.889Z,14.43
2019-05-06T18:30:22.401Z,14.53
2019-05-06T18:35:16.361Z,14.03
2019-05-06T18:40:19.935Z,12.10
2019-05-06T18:45:23.449Z,16.20
2019-05-06T18:50:26.904Z,14.70
2019-05-06T18:55:32.546Z,11.63
2019-05-06T19:00:35.791Z,15.63
2019-05-06T19:05:42.940Z,13.20
2019-05-06T19:10:46.499Z,12.40
2019-05-06T19:15:50.016Z,12.47
2019-05-06T19:20:53.889Z,14.03
2019-05-06T19:25:57.307Z,13.00
2019-05-06T19:31:03.834Z,14.90
2019-05-06T19:36:07.323Z,16.13
2019-05-06T19:41:12.688Z,14.77
2019-05-06T19:46:15.916Z,15.97
2019-05-06T19:51:19.398Z,14.53
2019-05-06T19:56:23.310Z,16.80
2019-05-06T20:01:26.864Z,22.03
2019-05-06T20:06:40.641Z,22.43
2019-05-06T20:11:45.013Z,21.50
2019-05-06T20:16:48.529Z,19.33
2019-05-06T20:21:52.678Z,16.83
2019-05-06T20:26:56.287Z,16.97
2019-05-06T20:31:59.710Z,15.87
2019-05-06T20:37:03.232Z,20.17
2019-05-06T20:42:08.574Z,19.00
2019-05-06T20:47:15.142Z,22.90
2019-05-06T20:52:22.999Z,18.27
2019-05-06T20:57:28.294Z,21.77
2019-05-06T21:02:32.662Z,16.57
2019-05-06T21:07:38.953Z,17.87
2019-05-06T21:12:53.241Z,18.27
2019-05-06T21:18:15.540Z,21.07
2019-05-06T21:23:18.961Z,15.33
2019-05-06T21:28:23.735Z,17.63
2019-05-06T21:33:27.413Z,16.40
2019-05-06T21:38:30.840Z,14.37
2019-05-06T21:43:46.029Z,17.23
2019-05-06T21:48:39.432Z,17.70
2019-05-06T21:53:42.857Z,19.27
2019-05-06T21:58:46.277Z,17.53
2019-05-06T22:03:49.701Z,16.17
2019-05-06T22:08:53.197Z,18.63
2019-05-06T22:14:00.756Z,19.83
2019-05-06T22:19:02.547Z,18.97
2019-05-06T22:24:06.163Z,17.00
2019-05-06T22:29:09.589Z,21.90
2019-05-06T22:34:15.842Z,22.63
2019-05-06T22:39:18.612Z,21.13
2019-05-06T22:44:22.807Z,21.10
2019-05-06T22:49:26.255Z,28.53
2019-05-06T22:54:31.893Z,21.53
2019-05-06T22:59:34.858Z,23.97
2019-05-06T23:04:39.992Z,23.00
2019-05-06T23:09:43.484Z,23.13
2019-05-06T23:14:46.897Z,22.10
2019-05-06T23:19:52.704Z,23.33
2019-05-06T23:24:55.485Z,25.57
2019-05-06T23:29:58.903Z,25.50
2019-05-06T23:35:03.283Z,24.37
2019-05-06T23:40:43.389Z,27.30
2019-05-06T23:46:05.403Z,23.50
2019-05-06T23:51:45.284Z,24.10
2019-05-06T23:56:47.559Z,25.80
